createdAt,value
2017-09-19T00:00:24.254Z,1012.29
2017-09-19T00:01:24.233Z,1012.27
2017-09-19T00:02:24.209Z,1012.26
2017-09-19T00:03:24.187Z,1012.32
2017-09-19T00:04:24.164Z,1012.28
2017-09-19T00:05:24.142Z,1012.27
2017-09-19T00:06:24.120Z,1012.29
2017-09-19T00:07:24.097Z,1012.26
2017-09-19T00:08:24.075Z,1012.29
2017-09-19T00:09:24.055Z,1012.30
2017-09-19T00:10:24.030Z,1012.27
2017-09-19T00:11:24.008Z,1012.28
2017-09-19T00:12:23.983Z,1012.26
2017-09-19T00:13:23.961Z,1012.28
2017-09-19T00:14:23.939Z,1012.28
2017-09-19T00:15:23.916Z,1012.27
2017-09-19T00:16:23.895Z,1012.28
2017-09-19T00:17:23.869Z,1012.27
2017-09-19T00:18:23.849Z,1012.27
2017-09-19T00:19:23.825Z,1012.31
2017-09-19T00:20:23.802Z,1012.31
2017-09-19T00:21:23.780Z,1012.38
2017-09-19T00:22:23.757Z,1012.40
2017-09-19T00:23:23.734Z,1012.35
2017-09-19T00:24:23.713Z,1012.36
2017-09-19T00:25:23.689Z,1012.36
2017-09-19T00:26:23.667Z,1012.33
2017-09-19T00:27:23.644Z,1012.33
2017-09-19T00:28:23.621Z,1012.35
2017-09-19T00:29:23.600Z,1012.33
2017-09-19T00:30:23.579Z,1012.31
2017-09-19T00:31:23.555Z,1012.35
2017-09-19T00:32:23.530Z,1012.34
2017-09-19T00:33:23.508Z,1012.35
2017-09-19T00:34:23.486Z,1012.36
2017-09-19T00:35:23.464Z,1012.34
2017-09-19T00:36:23.440Z,1012.35
2017-09-19T00:37:23.418Z,1012.34
2017-09-19T00:38:23.397Z,1012.38
2017-09-19T00:39:23.374Z,1012.32
2017-09-19T00:40:23.349Z,1012.32
2017-09-19T00:41:23.327Z,1012.30
2017-09-19T00:42:23.306Z,1012.26
2017-09-19T00:43:23.286Z,1012.28
2017-09-19T00:44:23.259Z,1012.25
2017-09-19T00:45:23.237Z,1012.25
2017-09-19T00:46:23.214Z,1012.28
2017-09-19T00:47:23.191Z,1012.25
2017-09-19T00:48:23.173Z,1012.25
2017-09-19T00:49:23.145Z,1012.26
2017-09-19T00:50:23.124Z,1012.23
2017-09-19T00:51:23.100Z,1012.22
2017-09-19T00:52:23.075Z,1012.26
2017-09-19T00:53:23.055Z,1012.26
2017-09-19T00:54:23.032Z,1012.25
2017-09-19T00:55:23.033Z,1012.23
2017-09-19T00:56:22.987Z,1012.22
2017-09-19T00:57:22.963Z,1012.22
2017-09-19T00:58:22.942Z,1012.18
2017-09-19T00:59:22.918Z,1012.22
2017-09-19T01:00:22.895Z,1012.23
2017-09-19T01:01:22.873Z,1012.24
2017-09-19T01:02:22.852Z,1012.26
2017-09-19T01:03:22.828Z,1012.24
2017-09-19T01:04:22.805Z,1012.23
2017-09-19T01:05:22.782Z,1012.22
2017-09-19T01:06:22.759Z,1012.22
2017-09-19T01:07:22.739Z,1012.27
2017-09-19T01:08:22.712Z,1012.27
2017-09-19T01:09:22.691Z,1012.28
2017-09-19T01:10:22.670Z,1012.29
2017-09-19T01:11:22.646Z,1012.32
2017-09-19T01:12:22.624Z,1012.32
2017-09-19T01:13:22.599Z,1012.36
2017-09-19T01:14:22.578Z,1012.37
2017-09-19T01:15:22.557Z,1012.38
2017-09-19T01:16:22.531Z,1012.37
2017-09-19T01:17:22.509Z,1012.36
2017-09-19T01:18:22.487Z,1012.37
2017-09-19T01:19:22.495Z,1012.40
2017-09-19T01:20:22.440Z,1012.38
2017-09-19T01:21:22.417Z,1012.38
2017-09-19T01:22:22.394Z,1012.35
2017-09-19T01:23:22.375Z,1012.36
2017-09-19T01:24:22.348Z,1012.38
2017-09-19T01:25:22.328Z,1012.35
2017-09-19T01:26:22.304Z,1012.33
2017-09-19T01:27:22.281Z,1012.32
2017-09-19T01:28:22.258Z,1012.32
2017-09-19T01:29:22.237Z,1012.32
2017-09-19T01:30:22.217Z,1012.30
2017-09-19T01:31:22.191Z,1012.33
2017-09-19T01:32:22.167Z,1012.31
2017-09-19T01:33:22.144Z,1012.31
2017-09-19T01:34:22.121Z,1012.31
2017-09-19T01:35:22.100Z,1012.33
2017-09-19T01:36:22.075Z,1012.31
2017-09-19T01:37:22.053Z,1012.32
2017-09-19T01:38:22.031Z,1012.32
2017-09-19T01:39:22.008Z,1012.32
2017-09-19T01:40:21.985Z,1012.28
2017-09-19T01:41:21.963Z,1012.31
2017-09-19T01:42:21.944Z,1012.27
2017-09-19T01:43:21.919Z,1012.28
2017-09-19T01:44:21.893Z,1012.34
2017-09-19T01:45:21.873Z,1012.32
2017-09-19T01:46:21.848Z,1012.32
2017-09-19T01:47:21.827Z,1012.27
2017-09-19T01:48:21.804Z,1012.26
2017-09-19T01:49:21.779Z,1012.26
2017-09-19T01:50:21.757Z,1012.26
2017-09-19T01:51:21.736Z,1012.22
2017-09-19T01:52:21.711Z,1012.23
2017-09-19T01:53:21.688Z,1012.25
2017-09-19T01:54:21.666Z,1012.27
2017-09-19T01:55:21.646Z,1012.27
2017-09-19T01:56:21.621Z,1012.31
2017-09-19T01:57:21.599Z,1012.30
2017-09-19T01:58:21.575Z,1012.29
2017-09-19T01:59:21.553Z,1012.27
2017-09-19T02:00:21.529Z,1012.30
2017-09-19T02:01:21.508Z,1012.24
2017-09-19T02:02:21.484Z,1012.27
2017-09-19T02:03:21.464Z,1012.28
2017-09-19T02:04:21.438Z,1012.23
2017-09-19T02:05:21.415Z,1012.25
2017-09-19T02:06:21.392Z,1012.22
2017-09-19T02:07:21.371Z,1012.24
2017-09-19T02:08:21.348Z,1012.22
2017-09-19T02:09:21.324Z,1012.21
2017-09-19T02:10:21.302Z,1012.24
2017-09-19T02:11:21.278Z,1012.25
2017-09-19T02:12:21.255Z,1012.28
2017-09-19T02:13:21.234Z,1012.28
2017-09-19T02:14:21.211Z,1012.26
2017-09-19T02:15:21.189Z,1012.30
2017-09-19T02:16:21.163Z,1012.27
2017-09-19T02:17:21.140Z,1012.30
2017-09-19T02:18:21.118Z,1012.31
2017-09-19T02:19:21.097Z,1012.26
2017-09-19T02:20:21.074Z,1012.29
2017-09-19T02:21:21.050Z,1012.28
2017-09-19T02:22:21.027Z,1012.27
2017-09-19T02:23:21.005Z,1012.28
2017-09-19T02:24:20.982Z,1012.28
2017-09-19T02:25:20.970Z,1012.29
2017-09-19T02:26:20.938Z,1012.28
2017-09-19T02:27:20.914Z,1012.27
2017-09-19T02:28:20.890Z,1012.24
2017-09-19T02:29:20.868Z,1012.27
2017-09-19T02:30:20.844Z,1012.25
2017-09-19T02:31:20.820Z,1012.22
2017-09-19T02:32:20.799Z,1012.24
2017-09-19T02:33:20.776Z,1012.22
2017-09-19T02:34:20.753Z,1012.21
2017-09-19T02:35:20.731Z,1012.22
2017-09-19T02:36:20.707Z,1012.21
2017-09-19T02:37:20.684Z,1012.21
2017-09-19T02:38:20.662Z,1012.24
2017-09-19T02:39:20.638Z,1012.23
2017-09-19T02:40:20.615Z,1012.24
2017-09-19T02:41:20.592Z,1012.24
2017-09-19T02:42:20.571Z,1012.23
2017-09-19T02:43:20.547Z,1012.22
2017-09-19T02:44:20.523Z,1012.24
2017-09-19T02:45:20.501Z,1012.27
2017-09-19T02:46:20.478Z,1012.25
2017-09-19T02:47:20.455Z,1012.27
2017-09-19T02:48:20.432Z,1012.30
2017-09-19T02:49:20.410Z,1012.26
2017-09-19T02:50:20.388Z,1012.28
2017-09-19T02:51:20.365Z,1012.27
2017-09-19T02:52:20.342Z,1012.28
2017-09-19T02:53:20.318Z,1012.30
2017-09-19T02:54:20.295Z,1012.31
2017-09-19T02:55:20.272Z,1012.33
2017-09-19T02:56:20.249Z,1012.32
2017-09-19T02:57:20.226Z,1012.31
2017-09-19T02:58:20.205Z,1012.29
2017-09-19T02:59:20.182Z,1012.31
2017-09-19T03:00:20.161Z,1012.28
2017-09-19T03:01:20.134Z,1012.27
2017-09-19T03:02:20.112Z,1012.26
2017-09-19T03:03:20.090Z,1012.26
2017-09-19T03:04:20.065Z,1012.21
2017-09-19T03:05:20.045Z,1012.18
2017-09-19T03:06:20.021Z,1012.21
2017-09-19T03:07:19.999Z,1012.14
2017-09-19T03:08:19.975Z,1012.13
2017-09-19T03:09:19.953Z,1012.15
2017-09-19T03:10:19.930Z,1012.13
2017-09-19T03:11:19.908Z,1012.12
2017-09-19T03:12:19.884Z,1012.11
2017-09-19T03:13:19.862Z,1012.11
2017-09-19T03:14:19.838Z,1012.07
2017-09-19T03:15:19.817Z,1012.08
2017-09-19T03:16:19.792Z,1012.09
2017-09-19T03:17:19.770Z,1012.05
2017-09-19T03:18:19.748Z,1012.08
2017-09-19T03:19:19.724Z,1012.08
2017-09-19T03:20:19.719Z,1012.07
2017-09-19T03:21:19.678Z,1012.07
2017-09-19T03:22:19.655Z,1012.10
2017-09-19T03:23:19.634Z,1012.04
2017-09-19T03:24:19.609Z,1012.08
2017-09-19T03:25:19.587Z,1012.07
2017-09-19T03:26:19.564Z,1012.10
2017-09-19T03:27:19.541Z,1012.06
2017-09-19T03:28:19.517Z,1012.04
2017-09-19T03:29:19.495Z,1012.05
2017-09-19T03:30:19.475Z,1012.05
2017-09-19T03:31:19.450Z,1012.06
2017-09-19T03:32:19.426Z,1012.05
2017-09-19T03:33:19.403Z,1012.01
2017-09-19T03:34:19.384Z,1012.04
2017-09-19T03:35:19.359Z,1012.04
2017-09-19T03:36:19.333Z,1012.01
2017-09-19T03:37:19.311Z,1012.03
2017-09-19T03:38:19.289Z,1012.05
2017-09-19T03:39:19.265Z,1012.05
2017-09-19T03:40:19.243Z,1012.06
2017-09-19T03:41:19.223Z,1012.05
2017-09-19T03:42:19.195Z,1012.07
2017-09-19T03:43:19.175Z,1012.03
2017-09-19T03:44:19.150Z,1012.05
2017-09-19T03:45:19.127Z,1012.03
2017-09-19T03:46:19.106Z,1012.02
2017-09-19T03:47:19.083Z,1012.05
2017-09-19T03:48:19.058Z,1012.04
2017-09-19T03:49:19.037Z,1012.06
2017-09-19T03:50:19.013Z,1012.03
2017-09-19T03:51:18.990Z,1012.02
2017-09-19T03:52:18.966Z,1012.06
2017-09-19T03:53:18.945Z,1012.05
2017-09-19T03:54:18.922Z,1012.01
2017-09-19T03:55:18.899Z,1012.03
2017-09-19T03:56:18.876Z,1012.02
2017-09-19T03:57:18.853Z,1012.06
2017-09-19T03:58:18.829Z,1012.09
2017-09-19T03:59:18.808Z,1012.08
2017-09-19T04:00:18.782Z,1012.07
2017-09-19T04:01:18.760Z,1012.14
2017-09-19T04:02:18.737Z,1012.11
2017-09-19T04:03:18.714Z,1012.12
2017-09-19T04:04:18.692Z,1012.10
2017-09-19T04:05:18.668Z,1012.13
2017-09-19T04:06:18.645Z,1012.11
2017-09-19T04:07:18.623Z,1012.12
2017-09-19T04:08:18.598Z,1012.12
2017-09-19T04:09:18.576Z,1012.14
2017-09-19T04:10:18.554Z,1012.14
2017-09-19T04:11:18.530Z,1012.12
2017-09-19T04:12:18.506Z,1012.13
2017-09-19T04:13:18.484Z,1012.10
2017-09-19T04:14:18.463Z,1012.16
2017-09-19T04:15:18.438Z,1012.17
2017-09-19T04:16:18.415Z,1012.17
2017-09-19T04:17:18.393Z,1012.22
2017-09-19T04:18:18.369Z,1012.21
2017-09-19T04:19:18.347Z,1012.24
2017-09-19T04:20:18.325Z,1012.25
2017-09-19T04:21:18.301Z,1012.22
2017-09-19T04:22:18.279Z,1012.22
2017-09-19T04:23:18.256Z,1012.25
2017-09-19T04:24:18.232Z,1012.24
2017-09-19T04:25:18.209Z,1012.23
2017-09-19T04:26:18.185Z,1012.25
2017-09-19T04:27:18.163Z,1012.23
2017-09-19T04:28:18.140Z,1012.25
2017-09-19T04:29:18.116Z,1012.27
2017-09-19T04:30:18.108Z,1012.26
2017-09-19T04:31:18.072Z,1012.27
2017-09-19T04:32:18.050Z,1012.29
2017-09-19T04:33:18.024Z,1012.26
2017-09-19T04:34:18.001Z,1012.26
2017-09-19T04:35:17.979Z,1012.27
2017-09-19T04:36:17.955Z,1012.27
2017-09-19T04:37:17.933Z,1012.26
2017-09-19T04:38:17.912Z,1012.27
2017-09-19T04:39:17.887Z,1012.27
2017-09-19T04:40:17.863Z,1012.29
2017-09-19T04:41:17.841Z,1012.27
2017-09-19T04:42:17.823Z,1012.30
2017-09-19T04:43:17.795Z,1012.29
2017-09-19T04:44:17.772Z,1012.30
2017-09-19T04:45:17.749Z,1012.28
2017-09-19T04:46:17.726Z,1012.31
2017-09-19T04:47:17.704Z,1012.38
2017-09-19T04:48:17.679Z,1012.34
2017-09-19T04:49:17.657Z,1012.33
2017-09-19T04:50:17.636Z,1012.32
2017-09-19T04:51:17.611Z,1012.33
2017-09-19T04:52:17.588Z,1012.37
2017-09-19T04:53:17.565Z,1012.36
2017-09-19T04:54:17.544Z,1012.37
2017-09-19T04:55:17.519Z,1012.39
2017-09-19T04:56:17.497Z,1012.43
2017-09-19T04:57:17.477Z,1012.43
2017-09-19T04:58:17.454Z,1012.46
2017-09-19T04:59:17.429Z,1012.44
2017-09-19T05:00:17.405Z,1012.48
2017-09-19T05:01:17.382Z,1012.48
2017-09-19T05:02:17.359Z,1012.47
2017-09-19T05:03:17.336Z,1012.51
2017-09-19T05:04:17.313Z,1012.49
2017-09-19T05:05:17.290Z,1012.55
2017-09-19T05:06:17.267Z,1012.56
2017-09-19T05:07:17.246Z,1012.53
2017-09-19T05:08:17.222Z,1012.57
2017-09-19T05:09:17.199Z,1012.56
2017-09-19T05:10:17.177Z,1012.54
2017-09-19T05:11:17.153Z,1012.59
2017-09-19T05:12:17.130Z,1012.55
2017-09-19T05:13:17.108Z,1012.57
2017-09-19T05:14:17.085Z,1012.58
2017-09-19T05:15:17.062Z,1012.58
2017-09-19T05:16:17.039Z,1012.59
2017-09-19T05:17:17.016Z,1012.60
2017-09-19T05:18:16.993Z,1012.59
2017-09-19T05:19:16.974Z,1012.60
2017-09-19T05:20:16.947Z,1012.62
2017-09-19T05:21:16.924Z,1012.60
2017-09-19T05:22:16.904Z,1012.59
2017-09-19T05:23:16.879Z,1012.64
2017-09-19T05:24:16.856Z,1012.64
2017-09-19T05:25:16.833Z,1012.63
2017-09-19T05:26:16.810Z,1012.64
2017-09-19T05:27:16.789Z,1012.67
2017-09-19T05:28:16.764Z,1012.65
2017-09-19T05:29:16.741Z,1012.69
2017-09-19T05:30:16.719Z,1012.65
2017-09-19T05:31:16.696Z,1012.69
2017-09-19T05:32:16.672Z,1012.71
2017-09-19T05:33:16.650Z,1012.70
2017-09-19T05:34:16.627Z,1012.73
2017-09-19T05:35:16.604Z,1012.72
2017-09-19T05:36:16.585Z,1012.74
2017-09-19T05:37:16.560Z,1012.74
2017-09-19T05:38:16.538Z,1012.75
2017-09-19T05:39:16.514Z,1012.75
2017-09-19T05:40:16.493Z,1012.74
2017-09-19T05:41:16.469Z,1012.75
2017-09-19T05:42:16.449Z,1012.75
2017-09-19T05:43:16.422Z,1012.74
2017-09-19T05:44:16.437Z,1012.77
2017-09-19T05:45:16.376Z,1012.74
2017-09-19T05:46:16.354Z,1012.77
2017-09-19T05:47:16.643Z,1012.75
2017-09-19T05:48:16.318Z,1012.74
2017-09-19T05:49:16.312Z,1012.74
2017-09-19T05:50:16.263Z,1012.73
2017-09-19T05:51:16.254Z,1012.72
2017-09-19T05:52:16.216Z,1012.71
2017-09-19T05:53:16.196Z,1012.67
2017-09-19T05:54:16.173Z,1012.69
2017-09-19T05:55:16.156Z,1012.70
2017-09-19T05:56:16.127Z,1012.71
2017-09-19T05:57:16.103Z,1012.72
2017-09-19T05:58:16.081Z,1012.71
2017-09-19T05:59:16.059Z,1012.70
2017-09-19T06:00:16.035Z,1012.69
2017-09-19T06:01:16.015Z,1012.66
2017-09-19T06:02:15.990Z,1012.64
2017-09-19T06:03:15.975Z,1012.67
2017-09-19T06:04:15.945Z,1012.67
2017-09-19T06:05:15.922Z,1012.65
2017-09-19T06:06:15.900Z,1012.69
2017-09-19T06:07:15.877Z,1012.66
2017-09-19T06:08:15.854Z,1012.69
2017-09-19T06:09:15.836Z,1012.68
2017-09-19T06:10:15.809Z,1012.71
2017-09-19T06:11:15.786Z,1012.71
2017-09-19T06:12:15.765Z,1012.72
2017-09-19T06:13:15.740Z,1012.70
2017-09-19T06:14:15.720Z,1012.68
2017-09-19T06:15:15.701Z,1012.70
2017-09-19T06:16:15.671Z,1012.71
2017-09-19T06:17:15.649Z,1012.71
2017-09-19T06:18:15.627Z,1012.73
2017-09-19T06:19:15.606Z,1012.76
2017-09-19T06:20:15.580Z,1012.77
2017-09-19T06:21:15.559Z,1012.78
2017-09-19T06:22:15.535Z,1012.80
2017-09-19T06:23:15.513Z,1012.82
2017-09-19T06:24:15.488Z,1012.85
2017-09-19T06:25:15.467Z,1012.85
2017-09-19T06:26:15.446Z,1012.88
2017-09-19T06:27:15.421Z,1012.91
2017-09-19T06:28:15.400Z,1012.85
2017-09-19T06:29:15.379Z,1012.87
2017-09-19T06:30:15.352Z,1012.84
2017-09-19T06:31:15.330Z,1012.85
2017-09-19T06:32:15.307Z,1012.87
2017-09-19T06:33:15.285Z,1012.82
2017-09-19T06:34:15.261Z,1012.85
2017-09-19T06:35:15.240Z,1012.83
2017-09-19T06:36:15.215Z,1012.77
2017-09-19T06:37:15.193Z,1012.81
2017-09-19T06:38:15.171Z,1012.77
2017-09-19T06:39:15.147Z,1012.82
2017-09-19T06:40:15.124Z,1012.80
2017-09-19T06:41:15.104Z,1012.75
2017-09-19T06:42:15.078Z,1012.78
2017-09-19T06:43:15.061Z,1012.76
2017-09-19T06:44:15.034Z,1012.79
2017-09-19T06:45:15.368Z,1012.76
2017-09-19T06:46:14.988Z,1012.80
2017-09-19T06:47:14.967Z,1012.81
2017-09-19T06:48:14.942Z,1012.82
2017-09-19T06:49:14.920Z,1012.84
2017-09-19T06:50:14.896Z,1012.83
2017-09-19T06:51:14.874Z,1012.81
2017-09-19T06:52:14.852Z,1012.78
2017-09-19T06:53:14.829Z,1012.81
2017-09-19T06:54:14.806Z,1012.82
2017-09-19T06:55:14.784Z,1012.83
2017-09-19T06:56:14.764Z,1012.81
2017-09-19T06:57:14.738Z,1012.78
2017-09-19T06:58:14.715Z,1012.82
2017-09-19T06:59:14.693Z,1012.82
2017-09-19T07:00:14.669Z,1012.79
2017-09-19T07:01:14.648Z,1012.79
2017-09-19T07:02:14.624Z,1012.80
2017-09-19T07:03:14.601Z,1012.79
2017-09-19T07:04:14.579Z,1012.82
2017-09-19T07:05:14.560Z,1012.82
2017-09-19T07:06:14.535Z,1012.82
2017-09-19T07:07:14.510Z,1012.81
2017-09-19T07:08:14.489Z,1012.84
2017-09-19T07:09:14.467Z,1012.84
2017-09-19T07:10:14.444Z,1012.88
2017-09-19T07:11:14.422Z,1012.94
2017-09-19T07:12:14.399Z,1012.90
2017-09-19T07:13:14.376Z,1012.89
2017-09-19T07:14:14.354Z,1012.90
2017-09-19T07:15:14.332Z,1012.95
2017-09-19T07:16:14.307Z,1012.95
2017-09-19T07:17:14.286Z,1012.95
2017-09-19T07:18:14.264Z,1012.95
2017-09-19T07:19:14.244Z,1012.97
2017-09-19T07:20:14.219Z,1013.00
2017-09-19T07:21:14.195Z,1012.99
2017-09-19T07:22:14.173Z,1012.96
2017-09-19T07:23:14.153Z,1013.03
2017-09-19T07:24:14.128Z,1013.02
2017-09-19T07:25:14.109Z,1013.04
2017-09-19T07:26:14.084Z,1013.08
2017-09-19T07:27:14.066Z,1013.04
2017-09-19T07:28:14.038Z,1013.06
2017-09-19T07:29:14.017Z,1013.00
2017-09-19T07:30:13.994Z,1013.05
2017-09-19T07:31:13.972Z,1013.00
2017-09-19T07:32:13.951Z,1013.00
2017-09-19T07:33:13.928Z,1013.02
2017-09-19T07:34:13.905Z,1013.02
2017-09-19T07:35:13.884Z,1013.03
2017-09-19T07:36:13.859Z,1013.03
2017-09-19T07:37:13.837Z,1012.99
2017-09-19T07:38:13.815Z,1013.04
2017-09-19T07:39:13.795Z,1013.05
2017-09-19T07:40:13.770Z,1013.07
2017-09-19T07:41:13.747Z,1013.07
2017-09-19T07:42:13.728Z,1013.07
2017-09-19T07:43:13.704Z,1013.10
2017-09-19T07:44:13.681Z,1013.10
2017-09-19T07:45:13.658Z,1013.09
2017-09-19T07:46:13.636Z,1013.09
2017-09-19T07:47:13.614Z,1013.12
2017-09-19T07:48:13.591Z,1013.13
2017-09-19T07:49:13.568Z,1013.17
2017-09-19T07:50:13.547Z,1013.17
2017-09-19T07:51:13.524Z,1013.15
2017-09-19T07:52:13.499Z,1013.14
2017-09-19T07:53:13.478Z,1013.13
2017-09-19T07:54:13.456Z,1013.12
2017-09-19T07:55:13.435Z,1013.11
2017-09-19T07:56:13.410Z,1013.04
2017-09-19T07:57:13.388Z,1013.05
2017-09-19T07:58:13.366Z,1013.09
2017-09-19T07:59:13.343Z,1013.09
2017-09-19T08:00:13.320Z,1013.09
2017-09-19T08:01:13.298Z,1013.09
2017-09-19T08:02:13.278Z,1013.12
2017-09-19T08:03:13.254Z,1013.10
2017-09-19T08:04:13.231Z,1013.10
2017-09-19T08:05:13.209Z,1013.06
2017-09-19T08:06:13.188Z,1013.08
2017-09-19T08:07:13.165Z,1013.06
2017-09-19T08:08:13.141Z,1013.06
2017-09-19T08:09:13.119Z,1013.07
2017-09-19T08:10:13.098Z,1013.07
2017-09-19T08:11:13.075Z,1013.09
2017-09-19T08:12:13.052Z,1013.09
2017-09-19T08:13:13.029Z,1013.07
2017-09-19T08:14:13.008Z,1013.10
2017-09-19T08:15:12.986Z,1013.08
2017-09-19T08:16:12.963Z,1013.07
2017-09-19T08:17:12.941Z,1013.08
2017-09-19T08:18:12.919Z,1013.10
2017-09-19T08:19:12.896Z,1013.07
2017-09-19T08:20:12.874Z,1013.13
2017-09-19T08:21:12.851Z,1013.11
2017-09-19T08:22:12.829Z,1013.16
2017-09-19T08:23:12.806Z,1013.15
2017-09-19T08:24:12.786Z,1013.16
2017-09-19T08:25:12.766Z,1013.19
2017-09-19T08:26:12.741Z,1013.25
2017-09-19T08:27:12.720Z,1013.22
2017-09-19T08:28:12.696Z,1013.19
2017-09-19T08:29:12.673Z,1013.19
2017-09-19T08:30:12.650Z,1013.20
2017-09-19T08:31:12.656Z,1013.22
2017-09-19T08:32:12.609Z,1013.22
2017-09-19T08:33:12.585Z,1013.21
2017-09-19T08:34:12.563Z,1013.23
2017-09-19T08:35:12.540Z,1013.26
2017-09-19T08:36:12.517Z,1013.20
2017-09-19T08:37:12.495Z,1013.20
2017-09-19T08:38:12.475Z,1013.22
2017-09-19T08:39:12.451Z,1013.20
2017-09-19T08:40:12.428Z,1013.22
2017-09-19T08:41:12.407Z,1013.24
2017-09-19T08:42:12.384Z,1013.24
2017-09-19T08:43:12.362Z,1013.21
2017-09-19T08:44:12.340Z,1013.25
2017-09-19T08:45:12.317Z,1013.23
2017-09-19T08:46:12.294Z,1013.25
2017-09-19T08:47:12.273Z,1013.22
2017-09-19T08:48:12.252Z,1013.22
2017-09-19T08:49:12.228Z,1013.24
2017-09-19T08:50:12.206Z,1013.20
2017-09-19T08:51:12.184Z,1013.22
2017-09-19T08:52:12.161Z,1013.19
2017-09-19T08:53:12.140Z,1013.16
2017-09-19T08:54:12.117Z,1013.14
2017-09-19T08:55:12.094Z,1013.13
2017-09-19T08:56:12.072Z,1013.16
2017-09-19T08:57:12.051Z,1013.15
2017-09-19T08:58:12.028Z,1013.08
2017-09-19T08:59:12.007Z,1013.03
2017-09-19T09:00:11.983Z,1013.03
2017-09-19T09:01:11.960Z,1013.01
2017-09-19T09:02:11.939Z,1012.96
2017-09-19T09:03:11.917Z,1012.98
2017-09-19T09:04:11.898Z,1012.96
2017-09-19T09:05:11.872Z,1012.95
2017-09-19T09:06:11.852Z,1012.94
2017-09-19T09:07:11.827Z,1012.98
2017-09-19T09:08:11.804Z,1012.96
2017-09-19T09:09:11.784Z,1012.95
2017-09-19T09:10:11.762Z,1013.00
2017-09-19T09:11:11.739Z,1012.96
2017-09-19T09:12:11.717Z,1012.94
2017-09-19T09:13:11.693Z,1012.94
2017-09-19T09:14:11.672Z,1012.91
2017-09-19T09:15:11.650Z,1012.94
2017-09-19T09:16:11.627Z,1012.91
2017-09-19T09:17:11.603Z,1012.90
2017-09-19T09:18:11.585Z,1012.92
2017-09-19T09:19:11.562Z,1012.85
2017-09-19T09:20:11.537Z,1012.83
2017-09-19T09:21:11.516Z,1012.87
2017-09-19T09:22:11.494Z,1012.83
2017-09-19T09:23:11.472Z,1012.84
2017-09-19T09:24:11.449Z,1012.82
2017-09-19T09:25:11.427Z,1012.79
2017-09-19T09:26:11.406Z,1012.79
2017-09-19T09:27:11.384Z,1012.82
2017-09-19T09:28:11.360Z,1012.83
2017-09-19T09:29:11.339Z,1012.81
2017-09-19T09:30:11.316Z,1012.84
2017-09-19T09:31:11.295Z,1012.81
2017-09-19T09:32:11.273Z,1012.86
2017-09-19T09:33:11.250Z,1012.84
2017-09-19T09:34:11.227Z,1012.83
2017-09-19T09:35:11.205Z,1012.85
2017-09-19T09:36:11.182Z,1012.85
2017-09-19T09:37:11.160Z,1012.89
2017-09-19T09:38:11.139Z,1012.88
2017-09-19T09:39:11.117Z,1012.88
2017-09-19T09:40:11.093Z,1012.89
2017-09-19T09:41:11.072Z,1012.87
2017-09-19T09:42:11.049Z,1012.89
2017-09-19T09:43:11.029Z,1012.89
2017-09-19T09:44:11.004Z,1012.91
2017-09-19T09:45:10.984Z,1012.90
2017-09-19T09:46:10.961Z,1012.94
2017-09-19T09:47:10.939Z,1012.90
2017-09-19T09:48:10.917Z,1012.91
2017-09-19T09:49:10.894Z,1012.86
2017-09-19T09:50:10.874Z,1012.84
2017-09-19T09:51:10.850Z,1012.93
2017-09-19T09:52:10.829Z,1012.85
2017-09-19T09:53:10.805Z,1012.91
2017-09-19T09:54:10.783Z,1012.88
2017-09-19T09:55:10.761Z,1012.88
2017-09-19T09:56:10.739Z,1012.82
2017-09-19T09:57:10.716Z,1012.84
2017-09-19T09:58:10.695Z,1012.84
2017-09-19T09:59:10.673Z,1012.80
2017-09-19T10:00:10.650Z,1012.82
2017-09-19T10:01:10.628Z,1012.83
2017-09-19T10:02:10.607Z,1012.83
2017-09-19T10:03:10.584Z,1012.84
2017-09-19T10:04:10.561Z,1012.84
2017-09-19T10:05:10.539Z,1012.79
2017-09-19T10:06:10.517Z,1012.77
2017-09-19T10:07:10.500Z,1012.77
2017-09-19T10:08:10.473Z,1012.80
2017-09-19T10:09:10.450Z,1012.81
2017-09-19T10:10:10.428Z,1012.79
2017-09-19T10:11:10.407Z,1012.81
2017-09-19T10:12:10.383Z,1012.85
2017-09-19T10:13:10.361Z,1012.86
2017-09-19T10:14:10.339Z,1012.89
2017-09-19T10:15:10.318Z,1012.84
2017-09-19T10:16:10.297Z,1012.85
2017-09-19T10:17:10.273Z,1012.87
2017-09-19T10:18:10.251Z,1012.86
2017-09-19T10:19:10.233Z,1012.83
2017-09-19T10:20:10.207Z,1012.84
2017-09-19T10:21:10.184Z,1012.85
2017-09-19T10:22:10.162Z,1012.83
2017-09-19T10:23:10.141Z,1012.83
2017-09-19T10:24:10.118Z,1012.83
2017-09-19T10:25:10.106Z,1012.79
2017-09-19T10:26:10.075Z,1012.80
2017-09-19T10:27:10.052Z,1012.78
2017-09-19T10:28:10.030Z,1012.80
2017-09-19T10:29:10.008Z,1012.79
2017-09-19T10:30:09.986Z,1012.77
2017-09-19T10:31:09.963Z,1012.80
2017-09-19T10:32:09.941Z,1012.79
2017-09-19T10:33:09.922Z,1012.83
2017-09-19T10:34:09.898Z,1012.79
2017-09-19T10:35:09.876Z,1012.83
2017-09-19T10:36:09.855Z,1012.77
2017-09-19T10:37:09.831Z,1012.79
2017-09-19T10:38:09.810Z,1012.85
2017-09-19T10:39:09.788Z,1012.80
2017-09-19T10:40:09.766Z,1012.80
2017-09-19T10:41:09.744Z,1012.80
2017-09-19T10:42:09.722Z,1012.80
2017-09-19T10:43:09.700Z,1012.75
2017-09-19T10:44:09.676Z,1012.80
2017-09-19T10:45:09.655Z,1012.78
2017-09-19T10:46:09.635Z,1012.79
2017-09-19T10:47:09.612Z,1012.79
2017-09-19T10:48:09.589Z,1012.75
2017-09-19T10:49:09.567Z,1012.75
2017-09-19T10:50:09.545Z,1012.74
2017-09-19T10:51:09.523Z,1012.69
2017-09-19T10:52:09.501Z,1012.68
2017-09-19T10:53:09.479Z,1012.69
2017-09-19T10:54:09.457Z,1012.73
2017-09-19T10:55:09.436Z,1012.69
2017-09-19T10:56:09.413Z,1012.69
2017-09-19T10:57:09.391Z,1012.75
2017-09-19T10:58:09.368Z,1012.72
2017-09-19T10:59:09.347Z,1012.72
2017-09-19T11:00:09.325Z,1012.68
2017-09-19T11:01:09.302Z,1012.70
2017-09-19T11:02:09.282Z,1012.68
2017-09-19T11:03:09.260Z,1012.69
2017-09-19T11:04:09.236Z,1012.73
2017-09-19T11:05:09.215Z,1012.72
2017-09-19T11:06:09.196Z,1012.75
2017-09-19T11:07:09.170Z,1012.76
2017-09-19T11:08:09.147Z,1012.75
2017-09-19T11:09:09.129Z,1012.74
2017-09-19T11:10:09.105Z,1012.73
2017-09-19T11:11:09.089Z,1012.74
2017-09-19T11:12:09.060Z,1012.73
2017-09-19T11:13:09.039Z,1012.73
2017-09-19T11:14:09.017Z,1012.70
2017-09-19T11:15:08.997Z,1012.72
2017-09-19T11:16:08.980Z,1012.70
2017-09-19T11:17:08.951Z,1012.73
2017-09-19T11:18:08.927Z,1012.72
2017-09-19T11:19:08.907Z,1012.74
2017-09-19T11:20:08.884Z,1012.75
2017-09-19T11:21:08.861Z,1012.76
2017-09-19T11:22:08.840Z,1012.75
2017-09-19T11:23:08.817Z,1012.77
2017-09-19T11:24:08.795Z,1012.70
2017-09-19T11:25:08.772Z,1012.73
2017-09-19T11:26:08.752Z,1012.77
2017-09-19T11:27:08.730Z,1012.73
2017-09-19T11:28:08.706Z,1012.78
2017-09-19T11:29:08.687Z,1012.74
2017-09-19T11:30:08.663Z,1012.73
2017-09-19T11:31:08.641Z,1012.73
2017-09-19T11:32:08.618Z,1012.70
2017-09-19T11:33:08.597Z,1012.74
2017-09-19T11:34:08.634Z,1012.74
2017-09-19T11:35:08.554Z,1012.73
2017-09-19T11:36:08.531Z,1012.70
2017-09-19T11:37:08.509Z,1012.73
2017-09-19T11:38:08.489Z,1012.67
2017-09-19T11:39:08.465Z,1012.70
2017-09-19T11:40:08.443Z,1012.70
2017-09-19T11:41:08.424Z,1012.70
2017-09-19T11:42:08.399Z,1012.79
2017-09-19T11:43:08.378Z,1012.75
2017-09-19T11:44:08.354Z,1012.76
2017-09-19T11:45:08.334Z,1012.68
2017-09-19T11:46:08.310Z,1012.72
2017-09-19T11:47:08.289Z,1012.71
2017-09-19T11:48:08.266Z,1012.72
2017-09-19T11:49:08.244Z,1012.70
2017-09-19T11:50:08.223Z,1012.71
2017-09-19T11:51:08.201Z,1012.72
2017-09-19T11:52:08.178Z,1012.71
2017-09-19T11:53:08.155Z,1012.70
2017-09-19T11:54:08.135Z,1012.73
2017-09-19T11:55:08.113Z,1012.71
2017-09-19T11:56:08.090Z,1012.74
2017-09-19T11:57:08.069Z,1012.75
2017-09-19T11:58:08.047Z,1012.73
2017-09-19T11:59:08.026Z,1012.71
2017-09-19T12:00:08.003Z,1012.73
2017-09-19T12:01:07.980Z,1012.68
2017-09-19T12:02:07.959Z,1012.69
2017-09-19T12:03:07.937Z,1012.70
2017-09-19T12:04:07.915Z,1012.68
2017-09-19T12:05:07.894Z,1012.72